createdAt,value
2022-10-16T00:01:16.296Z,13.92
2022-10-16T00:03:42.392Z,13.87
2022-10-16T00:06:08.499Z,13.91
2022-10-16T00:08:34.595Z,13.89
2022-10-16T00:11:00.693Z,13.92
2022-10-16T00:13:26.838Z,13.91
2022-10-16T00:15:52.937Z,13.88
2022-10-16T00:18:19.030Z,13.87
2022-10-16T00:20:45.194Z,13.88
2022-10-16T00:23:11.360Z,13.88
2022-10-16T00:25:37.436Z,13.89
2022-10-16T00:28:03.556Z,13.88
2022-10-16T00:30:29.642Z,13.90
2022-10-16T00:32:55.740Z,13.87
2022-10-16T00:35:21.859Z,13.83
2022-10-16T00:37:47.954Z,13.81
2022-10-16T00:40:14.044Z,13.80
2022-10-16T00:42:40.145Z,13.79
2022-10-16T00:45:06.241Z,13.80
2022-10-16T00:47:32.330Z,13.80
2022-10-16T00:49:58.942Z,13.84
2022-10-16T00:52:25.337Z,13.84
2022-10-16T00:54:51.661Z,13.84
2022-10-16T00:57:17.776Z,13.84
2022-10-16T00:59:43.865Z,13.78
2022-10-16T01:02:09.941Z,13.81
2022-10-16T01:04:36.067Z,13.80
2022-10-16T01:07:02.146Z,13.75
2022-10-16T01:09:28.436Z,13.72
2022-10-16T01:11:54.556Z,13.71
2022-10-16T01:14:20.679Z,13.71
2022-10-16T01:16:46.771Z,13.70
2022-10-16T01:19:12.879Z,13.70
2022-10-16T01:21:38.980Z,13.69
2022-10-16T01:24:05.070Z,13.67
2022-10-16T01:26:31.335Z,13.68
2022-10-16T01:28:57.477Z,13.63
2022-10-16T01:31:23.596Z,13.60
2022-10-16T01:33:49.763Z,13.61
2022-10-16T01:36:15.903Z,13.57
2022-10-16T01:38:41.990Z,13.55
2022-10-16T01:41:08.089Z,13.58
2022-10-16T01:43:34.180Z,13.56
2022-10-16T01:46:00.270Z,13.59
2022-10-16T01:48:26.373Z,13.55
2022-10-16T01:50:52.473Z,13.56
2022-10-16T01:53:18.570Z,13.56
2022-10-16T01:55:44.729Z,13.48
2022-10-16T01:58:10.821Z,13.51
2022-10-16T02:00:36.926Z,13.49
2022-10-16T02:03:03.031Z,13.49
2022-10-16T02:05:29.126Z,13.46
2022-10-16T02:07:55.210Z,13.48
2022-10-16T02:10:21.337Z,13.44
2022-10-16T02:12:47.486Z,13.42
2022-10-16T02:15:13.602Z,13.43
2022-10-16T02:17:39.707Z,13.45
2022-10-16T02:20:05.803Z,13.47
2022-10-16T02:22:31.891Z,13.48
2022-10-16T02:24:57.989Z,13.45
2022-10-16T02:27:24.077Z,13.46
2022-10-16T02:29:50.177Z,13.43
2022-10-16T02:32:16.273Z,13.43
2022-10-16T02:34:42.373Z,13.42
2022-10-16T02:37:08.466Z,13.41
2022-10-16T02:39:34.582Z,13.43
2022-10-16T02:42:00.670Z,13.43
2022-10-16T02:44:26.766Z,13.43
2022-10-16T02:46:52.881Z,13.39
2022-10-16T02:49:18.981Z,13.42
2022-10-16T02:51:45.076Z,13.42
2022-10-16T02:54:11.178Z,13.45
2022-10-16T02:56:37.264Z,13.43
2022-10-16T02:59:03.351Z,13.46
2022-10-16T03:01:29.477Z,13.46
2022-10-16T03:03:55.630Z,13.46
2022-10-16T03:06:21.716Z,13.47
2022-10-16T03:08:47.837Z,13.53
2022-10-16T03:11:13.937Z,13.51
2022-10-16T03:13:40.015Z,13.51
2022-10-16T03:16:06.108Z,13.50
2022-10-16T03:18:32.185Z,13.52
2022-10-16T03:20:58.285Z,13.53
2022-10-16T03:23:24.947Z,13.55
2022-10-16T03:25:51.110Z,13.54
2022-10-16T03:28:17.197Z,13.55
2022-10-16T03:30:43.297Z,13.49
2022-10-16T03:33:09.405Z,13.51
2022-10-16T03:35:35.492Z,13.56
2022-10-16T03:38:01.589Z,13.56
2022-10-16T03:40:27.752Z,13.51
2022-10-16T03:42:53.842Z,13.56
2022-10-16T03:45:19.952Z,13.53
2022-10-16T03:47:46.039Z,13.56
2022-10-16T03:50:12.119Z,13.55
2022-10-16T03:52:38.215Z,13.56
2022-10-16T03:55:04.305Z,13.55
2022-10-16T03:57:30.429Z,13.49
2022-10-16T03:59:57.035Z,13.52
2022-10-16T04:02:23.113Z,13.47
2022-10-16T04:04:49.204Z,13.50
2022-10-16T04:07:15.336Z,13.46
2022-10-16T04:09:41.421Z,13.45
2022-10-16T04:12:07.518Z,13.43
2022-10-16T04:14:33.619Z,13.41
2022-10-16T04:16:59.701Z,13.41
2022-10-16T04:19:25.790Z,13.40
2022-10-16T04:21:51.892Z,13.54
2022-10-16T04:24:17.972Z,13.31
2022-10-16T04:26:44.063Z,13.31
2022-10-16T04:29:10.471Z,13.33
2022-10-16T04:31:36.574Z,13.32
2022-10-16T04:34:02.667Z,13.35
2022-10-16T04:36:29.402Z,13.35
2022-10-16T04:38:55.585Z,13.35
2022-10-16T04:41:21.672Z,13.31
2022-10-16T04:43:47.777Z,13.32
2022-10-16T04:46:13.857Z,13.34
2022-10-16T04:48:39.946Z,13.32
2022-10-16T04:51:06.070Z,13.32
2022-10-16T04:53:32.159Z,13.30
2022-10-16T04:55:58.248Z,13.31
2022-10-16T04:58:24.370Z,13.33
2022-10-16T05:00:50.466Z,13.26
2022-10-16T05:03:16.704Z,13.26
2022-10-16T05:05:43.428Z,13.28
2022-10-16T05:08:09.524Z,13.28
2022-10-16T05:10:35.611Z,13.26
2022-10-16T05:13:01.717Z,13.25
2022-10-16T05:15:27.817Z,13.24
2022-10-16T05:17:53.903Z,13.25
2022-10-16T05:20:20.047Z,13.23
2022-10-16T05:22:46.124Z,13.17
2022-10-16T05:25:12.216Z,13.15
2022-10-16T05:27:38.330Z,13.17
2022-10-16T05:30:06.479Z,13.18
2022-10-16T05:32:34.742Z,13.11
2022-10-16T05:35:00.854Z,13.10
2022-10-16T05:37:27.270Z,13.13
2022-10-16T05:39:53.672Z,13.10
2022-10-16T05:42:19.796Z,13.07
2022-10-16T05:44:45.875Z,13.11
2022-10-16T05:47:11.966Z,13.06
2022-10-16T05:49:40.533Z,13.06
2022-10-16T05:52:07.641Z,13.01
2022-10-16T05:54:33.735Z,12.97
2022-10-16T05:56:59.838Z,12.99
2022-10-16T05:59:25.911Z,13.05
2022-10-16T06:01:51.999Z,13.05
2022-10-16T06:04:18.138Z,13.05
2022-10-16T06:06:44.222Z,13.03
2022-10-16T06:09:10.315Z,13.02
2022-10-16T06:11:36.425Z,13.05
2022-10-16T06:14:02.521Z,13.03
2022-10-16T06:16:28.611Z,13.04
2022-10-16T06:18:54.721Z,13.07
2022-10-16T06:21:20.795Z,13.08
2022-10-16T06:26:17.914Z,13.14
2022-10-16T06:28:44.121Z,13.15
2022-10-16T06:31:10.257Z,13.18
2022-10-16T06:33:36.389Z,13.23
2022-10-16T06:36:02.472Z,13.25
2022-10-16T06:38:28.565Z,13.25
2022-10-16T06:40:55.168Z,13.28
2022-10-16T06:43:21.256Z,13.27
2022-10-16T06:45:47.346Z,13.32
2022-10-16T06:48:13.461Z,13.32
2022-10-16T06:50:39.549Z,13.32
2022-10-16T06:53:05.647Z,13.39
2022-10-16T06:55:31.764Z,13.43
2022-10-16T06:57:57.873Z,13.46
2022-10-16T07:02:50.998Z,13.53
2022-10-16T07:05:17.088Z,13.61
2022-10-16T07:07:43.171Z,13.64
2022-10-16T07:10:09.635Z,13.64
2022-10-16T07:12:35.741Z,13.70
2022-10-16T07:15:01.830Z,13.73
2022-10-16T07:17:27.948Z,13.75
2022-10-16T07:19:54.031Z,13.81
2022-10-16T07:22:20.116Z,13.83
2022-10-16T07:24:49.139Z,13.91
2022-10-16T07:27:17.869Z,13.90
2022-10-16T07:29:43.955Z,13.95
2022-10-16T07:32:10.372Z,13.96
2022-10-16T07:34:36.466Z,14.01
2022-10-16T07:37:02.566Z,14.00
2022-10-16T07:39:28.682Z,14.01
2022-10-16T07:41:54.764Z,13.99
2022-10-16T07:44:20.849Z,13.96
2022-10-16T07:46:47.457Z,14.05
2022-10-16T07:49:13.541Z,14.02
2022-10-16T07:51:39.651Z,14.03
2022-10-16T07:54:05.814Z,14.05
2022-10-16T07:56:31.893Z,14.10
2022-10-16T07:58:57.985Z,14.12
2022-10-16T08:01:24.199Z,14.11
2022-10-16T08:03:50.371Z,14.09
2022-10-16T08:06:16.507Z,14.14
2022-10-16T08:08:42.619Z,14.07
2022-10-16T08:11:08.705Z,14.10
2022-10-16T08:13:34.797Z,14.13
2022-10-16T08:16:00.964Z,14.10
2022-10-16T08:18:27.053Z,14.11
2022-10-16T08:20:53.136Z,14.12
2022-10-16T08:23:19.241Z,14.12
2022-10-16T08:25:45.320Z,14.15
2022-10-16T08:28:11.437Z,14.18
2022-10-16T08:30:37.555Z,14.22
2022-10-16T08:33:03.634Z,14.22
2022-10-16T08:35:29.718Z,14.29
2022-10-16T08:37:55.869Z,14.30
2022-10-16T08:40:22.121Z,14.33
2022-10-16T08:42:48.325Z,14.41
2022-10-16T08:45:14.573Z,14.40
2022-10-16T08:47:40.661Z,14.41
2022-10-16T08:50:06.803Z,14.48
2022-10-16T08:52:32.938Z,14.51
2022-10-16T08:54:59.036Z,14.62
2022-10-16T08:57:25.120Z,14.65
2022-10-16T08:59:51.225Z,14.68
2022-10-16T09:02:17.317Z,14.71
2022-10-16T09:04:43.421Z,14.70
2022-10-16T09:07:09.537Z,14.72
2022-10-16T09:09:35.659Z,14.78
2022-10-16T09:12:01.760Z,14.85
2022-10-16T09:14:27.879Z,14.84
2022-10-16T09:16:53.996Z,14.92
2022-10-16T09:19:20.085Z,14.95
2022-10-16T09:21:46.182Z,15.02
2022-10-16T09:24:12.274Z,15.07
2022-10-16T09:26:38.360Z,15.11
2022-10-16T09:29:04.553Z,15.16
2022-10-16T09:31:30.705Z,15.21
2022-10-16T09:33:56.805Z,15.32
2022-10-16T09:36:22.923Z,15.36
2022-10-16T09:38:49.003Z,15.40
2022-10-16T09:41:15.112Z,15.42
2022-10-16T09:43:41.353Z,15.45
2022-10-16T09:46:07.460Z,15.52
2022-10-16T09:48:33.608Z,15.63
2022-10-16T09:50:59.758Z,15.67
2022-10-16T09:53:25.840Z,15.70
2022-10-16T09:55:51.924Z,15.74
2022-10-16T09:58:18.042Z,15.81
2022-10-16T10:00:44.133Z,15.88
2022-10-16T10:03:10.231Z,15.89
2022-10-16T10:05:36.324Z,15.87
2022-10-16T10:08:02.417Z,16.11
2022-10-16T10:10:28.548Z,16.19
2022-10-16T10:12:54.690Z,16.10
2022-10-16T10:15:20.838Z,16.06
2022-10-16T10:17:46.968Z,16.27
2022-10-16T10:20:13.622Z,16.20
2022-10-16T10:22:39.758Z,16.28
2022-10-16T10:25:05.979Z,16.29
2022-10-16T10:27:32.098Z,16.30
2022-10-16T10:29:58.201Z,16.29
2022-10-16T10:32:24.725Z,16.31
2022-10-16T10:34:54.266Z,16.41
2022-10-16T10:37:22.829Z,16.42
2022-10-16T10:39:48.958Z,16.47
2022-10-16T10:42:15.115Z,16.49
2022-10-16T10:44:41.209Z,16.61
2022-10-16T10:47:07.320Z,16.61
2022-10-16T10:49:33.439Z,16.60
2022-10-16T10:51:59.523Z,16.61
2022-10-16T10:54:25.605Z,16.62
2022-10-16T10:56:51.710Z,16.52
2022-10-16T10:59:17.784Z,16.55
2022-10-16T11:01:43.931Z,16.62
2022-10-16T11:04:10.068Z,16.63
2022-10-16T11:06:36.193Z,16.61
2022-10-16T11:09:02.296Z,16.72
2022-10-16T11:11:28.403Z,16.78
2022-10-16T11:13:54.488Z,16.83
2022-10-16T11:16:21.653Z,16.79
2022-10-16T11:18:47.986Z,16.76
2022-10-16T11:21:14.099Z,16.69
2022-10-16T11:23:40.184Z,16.69
2022-10-16T11:26:06.645Z,16.79
2022-10-16T11:28:32.814Z,16.82
2022-10-16T11:30:58.948Z,16.84
2022-10-16T11:33:25.140Z,16.90
2022-10-16T11:35:51.285Z,16.91
2022-10-16T11:38:17.413Z,16.98
2022-10-16T11:40:43.920Z,16.94
2022-10-16T11:45:36.141Z,16.97
2022-10-16T11:48:02.684Z,17.12
2022-10-16T11:50:29.341Z,17.24
2022-10-16T11:52:55.543Z,17.16
2022-10-16T11:55:22.303Z,17.17
2022-10-16T11:57:48.380Z,17.28
2022-10-16T12:00:14.480Z,17.20
2022-10-16T12:02:40.587Z,17.19
2022-10-16T12:05:06.731Z,17.28
2022-10-16T12:07:32.892Z,17.30
2022-10-16T12:09:59.122Z,17.46
2022-10-16T12:12:25.629Z,17.50
2022-10-16T12:15:14.624Z,17.46
2022-10-16T12:17:38.055Z,17.59
2022-10-16T12:20:04.167Z,17.53
2022-10-16T12:22:30.284Z,17.59
2022-10-16T12:24:56.427Z,17.60
2022-10-16T12:27:22.618Z,17.67
2022-10-16T12:29:49.622Z,17.61
2022-10-16T12:32:19.392Z,17.54
2022-10-16T12:34:50.240Z,17.58
2022-10-16T12:37:16.349Z,17.58
2022-10-16T12:39:42.432Z,17.65
2022-10-16T12:42:08.532Z,17.59
2022-10-16T12:44:34.642Z,17.45
2022-10-16T12:47:00.723Z,17.48
2022-10-16T12:49:26.875Z,17.43
2022-10-16T12:51:52.967Z,17.43
2022-10-16T12:54:19.063Z,17.50
2022-10-16T12:56:45.149Z,17.59
2022-10-16T12:59:11.276Z,17.61
2022-10-16T13:01:37.417Z,17.66
2022-10-16T13:04:03.515Z,17.74
2022-10-16T13:06:29.645Z,17.88
2022-10-16T13:08:55.738Z,17.98
2022-10-16T13:11:21.823Z,18.00
2022-10-16T13:13:47.941Z,18.02
2022-10-16T13:16:14.085Z,18.23
2022-10-16T13:18:40.199Z,18.33
2022-10-16T13:21:06.429Z,18.23
2022-10-16T13:23:32.508Z,18.29
2022-10-16T13:25:58.600Z,18.36
2022-10-16T13:28:24.746Z,18.23
2022-10-16T13:30:50.857Z,18.19
2022-10-16T13:33:16.959Z,18.05
2022-10-16T13:35:43.107Z,18.04
2022-10-16T13:38:09.222Z,18.07
2022-10-16T13:40:35.411Z,18.02
2022-10-16T13:43:01.589Z,18.05
2022-10-16T13:45:27.830Z,18.09
2022-10-16T13:47:53.921Z,18.25
2022-10-16T13:50:20.037Z,18.30
2022-10-16T13:52:46.135Z,18.41
2022-10-16T13:55:12.222Z,18.33
2022-10-16T13:57:38.406Z,18.42
2022-10-16T14:00:04.514Z,18.48
2022-10-16T14:02:30.732Z,18.43
2022-10-16T14:04:56.949Z,18.35
2022-10-16T14:07:23.033Z,18.35
2022-10-16T14:09:49.131Z,18.33
2022-10-16T14:12:15.257Z,18.40
2022-10-16T14:14:41.340Z,18.33
2022-10-16T14:17:07.440Z,18.37
2022-10-16T14:19:33.536Z,18.56
2022-10-16T14:21:59.623Z,18.64
2022-10-16T14:24:25.712Z,18.70
2022-10-16T14:26:51.805Z,18.68
2022-10-16T14:29:17.893Z,18.82
2022-10-16T14:31:43.995Z,18.95
2022-10-16T14:34:10.104Z,18.93
2022-10-16T14:36:36.231Z,18.97
2022-10-16T14:39:02.420Z,18.88
2022-10-16T14:41:28.613Z,18.74
2022-10-16T14:43:54.701Z,18.43
2022-10-16T14:48:47.832Z,18.30
2022-10-16T14:51:13.907Z,18.38
2022-10-16T14:53:40.011Z,18.37
2022-10-16T14:56:06.134Z,18.31
2022-10-16T14:58:32.225Z,18.43
2022-10-16T15:00:58.306Z,18.27
2022-10-16T15:03:24.461Z,18.25
2022-10-16T15:05:50.562Z,18.22
2022-10-16T15:08:16.664Z,18.20
2022-10-16T15:10:42.768Z,18.21
2022-10-16T15:13:08.865Z,18.23
2022-10-16T15:15:34.966Z,18.19
2022-10-16T15:18:01.075Z,18.16
2022-10-16T15:20:27.173Z,18.12
2022-10-16T15:22:53.261Z,18.03
2022-10-16T15:25:19.369Z,17.98
2022-10-16T15:27:45.459Z,17.85
2022-10-16T15:30:11.540Z,17.90
2022-10-16T15:32:37.670Z,17.86
2022-10-16T15:35:03.831Z,17.83
2022-10-16T15:37:29.969Z,17.85
2022-10-16T15:39:56.577Z,17.76
2022-10-16T15:42:22.678Z,17.72
2022-10-16T15:44:48.762Z,17.70
2022-10-16T15:47:14.862Z,17.66
2022-10-16T15:49:40.949Z,17.66
2022-10-16T15:52:07.051Z,17.62
2022-10-16T15:54:33.153Z,17.64
2022-10-16T15:56:59.250Z,17.66
2022-10-16T15:59:25.332Z,17.62
2022-10-16T16:01:52.155Z,17.57
2022-10-16T16:04:42.251Z,17.54
2022-10-16T16:07:04.426Z,17.50
2022-10-16T16:09:30.531Z,17.45
2022-10-16T16:11:56.665Z,17.44
2022-10-16T16:14:22.775Z,17.34
2022-10-16T16:16:48.852Z,17.31
2022-10-16T16:19:14.959Z,17.28
2022-10-16T16:21:41.073Z,17.21
2022-10-16T16:24:07.304Z,17.21
2022-10-16T16:26:33.451Z,17.19
2022-10-16T16:28:59.601Z,17.13
2022-10-16T16:31:25.759Z,17.10
2022-10-16T16:33:51.849Z,17.03
2022-10-16T16:36:17.968Z,17.01
2022-10-16T16:38:44.069Z,17.01
2022-10-16T16:41:10.176Z,16.97
2022-10-16T16:43:36.328Z,16.90
2022-10-16T16:46:02.433Z,16.82
2022-10-16T16:48:28.506Z,16.83
2022-10-16T16:50:54.660Z,16.86
2022-10-16T16:53:20.732Z,16.88
2022-10-16T16:55:46.857Z,16.85
2022-10-16T16:58:12.979Z,16.83
2022-10-16T17:00:47.268Z,16.81
2022-10-16T17:03:17.732Z,16.83
2022-10-16T17:05:43.863Z,16.80
2022-10-16T17:08:09.971Z,16.83
2022-10-16T17:10:36.138Z,16.82
2022-10-16T17:13:02.234Z,16.83
2022-10-16T17:15:31.498Z,16.82
2022-10-16T17:17:57.626Z,16.80
2022-10-16T17:20:23.710Z,16.76
2022-10-16T17:22:49.813Z,16.73
2022-10-16T17:25:15.930Z,16.70
2022-10-16T17:27:42.041Z,16.71
2022-10-16T17:30:08.144Z,16.77
2022-10-16T17:32:34.260Z,16.66
2022-10-16T17:35:00.345Z,16.64
2022-10-16T17:37:27.747Z,16.68
2022-10-16T17:39:53.907Z,16.66
2022-10-16T17:42:20.006Z,16.59
2022-10-16T17:44:46.083Z,16.57
2022-10-16T17:47:12.225Z,16.59
2022-10-16T17:49:38.314Z,16.58
2022-10-16T17:52:04.399Z,16.62
2022-10-16T17:54:30.550Z,16.60
2022-10-16T17:56:56.632Z,16.62
2022-10-16T17:59:22.721Z,16.61
2022-10-16T18:01:49.043Z,16.55
2022-10-16T18:04:15.153Z,16.45
2022-10-16T18:06:41.250Z,16.56
2022-10-16T18:09:07.397Z,16.57
2022-10-16T18:11:33.480Z,16.57
2022-10-16T18:13:59.564Z,16.57
2022-10-16T18:16:25.679Z,16.59
2022-10-16T18:18:51.769Z,16.60
2022-10-16T18:21:17.856Z,16.60
2022-10-16T18:23:49.057Z,16.59
2022-10-16T18:26:18.216Z,16.56
2022-10-16T18:28:44.396Z,16.57
2022-10-16T18:31:10.544Z,16.52
2022-10-16T18:33:36.657Z,16.55
2022-10-16T18:36:02.765Z,16.53
2022-10-16T18:38:28.852Z,16.52
2022-10-16T18:40:54.942Z,16.49
2022-10-16T18:43:21.198Z,16.52
2022-10-16T18:45:47.313Z,16.48
2022-10-16T18:48:13.397Z,16.51
2022-10-16T18:50:39.493Z,16.50
2022-10-16T18:53:05.612Z,16.52
2022-10-16T18:55:31.694Z,16.50
2022-10-16T18:57:57.821Z,16.46
2022-10-16T19:00:23.917Z,16.42
2022-10-16T19:02:50.000Z,16.42
2022-10-16T19:05:16.108Z,16.39
2022-10-16T19:07:42.196Z,16.36
2022-10-16T19:10:08.291Z,16.36
2022-10-16T19:12:34.384Z,16.36
2022-10-16T19:15:00.514Z,16.35
2022-10-16T19:17:26.626Z,16.37
2022-10-16T19:19:52.758Z,16.34
2022-10-16T19:22:18.865Z,16.37
2022-10-16T19:24:44.952Z,16.40
2022-10-16T19:27:11.062Z,16.37
2022-10-16T19:29:37.143Z,16.38
2022-10-16T19:32:06.568Z,16.37
2022-10-16T19:34:33.631Z,16.37
2022-10-16T19:36:59.727Z,16.37
2022-10-16T19:39:25.825Z,16.35
2022-10-16T19:41:51.946Z,16.37
2022-10-16T19:44:18.032Z,16.39
2022-10-16T19:46:44.115Z,16.42
2022-10-16T19:49:10.234Z,16.41
2022-10-16T19:51:36.333Z,16.43
2022-10-16T19:54:02.433Z,16.44
2022-10-16T19:56:28.836Z,16.44
2022-10-16T19:58:54.944Z,16.42
2022-10-16T20:01:21.080Z,16.43
2022-10-16T20:03:47.269Z,16.45
2022-10-16T20:06:13.347Z,16.48
2022-10-16T20:08:39.447Z,16.49
2022-10-16T20:11:06.078Z,16.46
2022-10-16T20:13:32.166Z,16.43
2022-10-16T20:15:58.332Z,16.45
2022-10-16T20:18:24.511Z,16.45
2022-10-16T20:20:50.653Z,16.39
2022-10-16T20:23:16.799Z,16.38
2022-10-16T20:25:42.897Z,16.33
2022-10-16T20:28:08.993Z,16.36
2022-10-16T20:30:35.074Z,16.41
2022-10-16T20:33:01.185Z,16.32
2022-10-16T20:35:27.283Z,16.31
2022-10-16T20:37:53.467Z,16.26
2022-10-16T20:40:19.571Z,16.25
2022-10-16T20:42:45.660Z,16.26
2022-10-16T20:45:11.790Z,16.24
2022-10-16T20:47:37.895Z,16.21
2022-10-16T20:50:03.976Z,16.22
2022-10-16T20:52:30.063Z,16.18
2022-10-16T20:54:56.178Z,16.21
2022-10-16T20:57:22.281Z,16.19
2022-10-16T20:59:48.410Z,16.16
2022-10-16T21:02:14.742Z,16.16
2022-10-16T21:04:40.902Z,16.14
2022-10-16T21:07:06.985Z,16.16
2022-10-16T21:09:33.118Z,16.14
2022-10-16T21:11:59.210Z,16.12
2022-10-16T21:14:25.316Z,16.12
2022-10-16T21:16:51.488Z,16.12
2022-10-16T21:19:17.569Z,16.14
2022-10-16T21:21:43.644Z,16.12
2022-10-16T21:24:12.304Z,16.08
2022-10-16T21:26:41.247Z,16.11
2022-10-16T21:29:07.447Z,16.09
2022-10-16T21:31:33.618Z,16.11
2022-10-16T21:33:59.736Z,16.12
2022-10-16T21:36:25.821Z,16.07
2022-10-16T21:38:51.928Z,16.07
2022-10-16T21:41:18.008Z,16.09
2022-10-16T21:43:44.094Z,16.08
2022-10-16T21:46:10.217Z,16.08
2022-10-16T21:48:36.321Z,16.08
2022-10-16T21:51:02.408Z,16.11
2022-10-16T21:53:28.521Z,16.09
2022-10-16T21:55:54.627Z,16.08
2022-10-16T21:58:20.716Z,16.10
2022-10-16T22:00:46.875Z,16.08
2022-10-16T22:03:12.970Z,16.09
2022-10-16T22:05:39.062Z,16.09
2022-10-16T22:08:05.168Z,16.13
2022-10-16T22:10:31.262Z,16.12
2022-10-16T22:12:57.377Z,16.11
2022-10-16T22:17:49.475Z,16.11
2022-10-16T22:20:15.556Z,16.14
2022-10-16T22:22:41.694Z,16.13
2022-10-16T22:25:07.894Z,16.13
2022-10-16T22:27:34.077Z,16.12
2022-10-16T22:30:00.320Z,16.13
2022-10-16T22:32:26.441Z,16.11
2022-10-16T22:34:52.576Z,16.11
2022-10-16T22:37:18.717Z,16.12
2022-10-16T22:39:44.851Z,16.13
2022-10-16T22:42:10.958Z,16.11
2022-10-16T22:44:37.098Z,16.12
2022-10-16T22:47:03.248Z,16.13
2022-10-16T22:49:29.406Z,16.13
2022-10-16T22:51:55.595Z,16.13
2022-10-16T22:54:21.715Z,16.12
2022-10-16T22:56:47.834Z,16.12
2022-10-16T22:59:14.004Z,16.12
2022-10-16T23:01:40.100Z,16.13
2022-10-16T23:04:06.194Z,16.12
2022-10-16T23:06:32.340Z,16.13
2022-10-16T23:08:58.425Z,16.15
2022-10-16T23:11:24.525Z,16.15
2022-10-16T23:13:50.640Z,16.13
2022-10-16T23:16:16.723Z,16.18
2022-10-16T23:18:42.803Z,16.15
2022-10-16T23:21:08.912Z,16.14
2022-10-16T23:23:35.001Z,16.15
2022-10-16T23:26:01.094Z,16.15
2022-10-16T23:28:27.292Z,16.15
2022-10-16T23:30:53.432Z,16.15
2022-10-16T23:33:19.525Z,16.14
2022-10-16T23:35:45.649Z,16.15
2022-10-16T23:38:11.755Z,16.14
2022-10-16T23:40:37.889Z,16.15
2022-10-16T23:43:04.018Z,16.16
2022-10-16T23:45:30.100Z,16.18
2022-10-16T23:47:56.199Z,16.17
2022-10-16T23:50:22.287Z,16.16
2022-10-16T23:52:48.381Z,16.16
2022-10-16T23:55:14.482Z,16.15
2022-10-16T23:57:40.600Z,16.15
